createdAt,value
2019-06-26T00:01:27.011Z,24.70
2019-06-26T00:03:54.711Z,24.67
2019-06-26T00:06:22.327Z,24.64
2019-06-26T00:08:50.001Z,24.60
2019-06-26T00:11:17.661Z,24.55
2019-06-26T00:13:45.478Z,24.54
2019-06-26T00:16:13.512Z,24.53
2019-06-26T00:18:40.933Z,24.49
2019-06-26T00:21:08.289Z,24.44
2019-06-26T00:23:36.046Z,24.35
2019-06-26T00:26:03.536Z,24.28
2019-06-26T00:28:30.887Z,24.22
2019-06-26T00:30:58.527Z,24.18
2019-06-26T00:33:25.854Z,24.15
2019-06-26T00:35:53.602Z,24.12
2019-06-26T00:38:21.323Z,24.09
2019-06-26T00:40:49.614Z,24.04
2019-06-26T00:43:17.230Z,24.00
2019-06-26T00:45:44.926Z,23.95
2019-06-26T00:48:13.151Z,23.83
2019-06-26T00:50:40.855Z,23.68
2019-06-26T00:53:08.327Z,23.60
2019-06-26T00:55:36.333Z,23.58
2019-06-26T00:58:03.967Z,23.52
2019-06-26T01:00:40.543Z,23.42
2019-06-26T01:03:08.406Z,23.35
2019-06-26T01:05:36.141Z,23.29
2019-06-26T01:08:03.770Z,23.25
2019-06-26T01:10:31.431Z,23.22
2019-06-26T01:12:58.725Z,23.21
2019-06-26T01:15:26.316Z,23.23
2019-06-26T01:17:53.662Z,23.18
2019-06-26T01:20:21.603Z,23.20
2019-06-26T01:22:49.192Z,23.20
2019-06-26T01:25:16.980Z,20.49
2019-06-26T01:27:44.811Z,23.16
2019-06-26T01:30:12.422Z,23.14
2019-06-26T01:32:39.921Z,23.14
2019-06-26T01:35:08.060Z,23.13
2019-06-26T01:37:35.037Z,23.12
2019-06-26T01:40:02.737Z,22.50
2019-06-26T01:42:29.967Z,23.07
2019-06-26T01:44:58.088Z,21.68
2019-06-26T01:47:25.258Z,23.01
2019-06-26T01:49:52.629Z,23.01
2019-06-26T01:52:19.480Z,22.98
2019-06-26T01:54:47.112Z,22.95
2019-06-26T01:57:14.845Z,22.92
2019-06-26T01:59:42.264Z,22.89
2019-06-26T02:02:09.690Z,22.85
2019-06-26T02:04:37.717Z,22.79
2019-06-26T02:07:05.155Z,22.75
2019-06-26T02:09:33.192Z,22.74
2019-06-26T02:12:00.683Z,22.69
2019-06-26T02:14:31.481Z,22.67
2019-06-26T02:16:56.427Z,22.65
2019-06-26T02:19:24.120Z,22.61
2019-06-26T02:21:51.738Z,22.59
2019-06-26T02:24:19.373Z,22.51
2019-06-26T02:26:47.156Z,22.47
2019-06-26T02:29:14.705Z,22.43
2019-06-26T02:31:41.793Z,22.40
2019-06-26T02:34:09.387Z,22.36
2019-06-26T02:36:36.344Z,22.29
2019-06-26T02:39:05.642Z,21.02
2019-06-26T02:41:33.209Z,22.25
2019-06-26T02:44:00.999Z,22.23
2019-06-26T02:46:28.703Z,22.23
2019-06-26T02:48:56.092Z,22.22
2019-06-26T02:51:23.503Z,22.21
2019-06-26T02:53:50.773Z,22.21
2019-06-26T02:56:18.437Z,22.20
2019-06-26T02:58:46.035Z,21.94
2019-06-26T03:01:13.763Z,22.19
2019-06-26T03:03:41.526Z,22.19
2019-06-26T03:06:09.223Z,22.22
2019-06-26T03:08:37.071Z,22.20
2019-06-26T03:11:04.939Z,22.21
2019-06-26T03:13:32.813Z,22.21
2019-06-26T03:16:00.980Z,22.22
2019-06-26T03:18:28.887Z,22.23
2019-06-26T03:20:56.826Z,22.23
2019-06-26T03:23:24.962Z,22.24
2019-06-26T03:25:52.660Z,22.24
2019-06-26T03:28:19.612Z,22.19
2019-06-26T03:30:47.165Z,22.23
2019-06-26T03:33:15.230Z,22.25
2019-06-26T03:35:43.006Z,22.27
2019-06-26T03:38:10.625Z,22.25
2019-06-26T03:40:38.403Z,22.23
2019-06-26T03:43:05.461Z,22.22
2019-06-26T03:45:32.343Z,22.23
2019-06-26T03:48:00.196Z,22.26
2019-06-26T03:50:27.409Z,22.26
2019-06-26T03:52:54.291Z,22.26
2019-06-26T03:55:22.184Z,22.24
2019-06-26T03:57:49.659Z,22.24
2019-06-26T04:00:20.246Z,22.25
2019-06-26T04:02:47.887Z,22.24
2019-06-26T04:05:15.852Z,22.25
2019-06-26T04:07:43.555Z,22.25
2019-06-26T04:10:10.780Z,22.29
2019-06-26T04:12:38.034Z,22.32
2019-06-26T04:15:06.200Z,22.35
2019-06-26T04:17:33.768Z,22.38
2019-06-26T04:20:01.615Z,22.41
2019-06-26T04:22:29.401Z,22.43
2019-06-26T04:24:56.506Z,22.45
2019-06-26T04:27:24.264Z,22.47
2019-06-26T04:29:52.094Z,22.51
2019-06-26T04:32:19.208Z,22.54
2019-06-26T04:34:46.812Z,22.60
2019-06-26T04:37:13.759Z,22.66
2019-06-26T04:39:41.142Z,22.74
2019-06-26T04:42:09.011Z,22.83
2019-06-26T04:44:35.824Z,22.92
2019-06-26T04:47:02.955Z,23.00
2019-06-26T04:49:30.773Z,21.81
2019-06-26T04:52:02.011Z,23.15
2019-06-26T04:54:29.428Z,23.21
2019-06-26T04:56:57.266Z,23.29
2019-06-26T04:59:24.452Z,23.32
2019-06-26T05:01:52.184Z,23.38
2019-06-26T05:04:20.357Z,23.45
2019-06-26T05:06:48.263Z,23.52
2019-06-26T05:09:15.770Z,23.58
2019-06-26T05:11:43.429Z,23.66
2019-06-26T05:14:10.049Z,23.75
2019-06-26T05:16:37.794Z,23.81
2019-06-26T05:19:04.894Z,22.68
2019-06-26T05:21:31.838Z,23.94
2019-06-26T05:23:59.576Z,23.52
2019-06-26T05:26:27.187Z,24.07
2019-06-26T05:28:54.103Z,24.09
2019-06-26T05:31:21.750Z,23.00
2019-06-26T05:33:49.330Z,24.25
2019-06-26T05:36:16.156Z,24.35
2019-06-26T05:38:43.172Z,24.43
2019-06-26T05:41:09.894Z,24.52
2019-06-26T05:43:36.734Z,24.60
2019-06-26T05:46:04.035Z,24.68
2019-06-26T05:48:30.993Z,24.78
2019-06-26T05:50:57.869Z,24.88
2019-06-26T05:53:25.781Z,24.99
2019-06-26T05:55:52.507Z,25.09
2019-06-26T05:58:20.076Z,25.19
2019-06-26T06:00:47.357Z,25.34
2019-06-26T06:03:14.434Z,25.46
2019-06-26T06:05:41.972Z,25.61
2019-06-26T06:08:09.140Z,25.72
2019-06-26T06:10:35.858Z,25.85
2019-06-26T06:13:02.716Z,25.98
2019-06-26T06:15:29.544Z,26.08
2019-06-26T06:17:57.042Z,26.19
2019-06-26T06:20:28.258Z,26.29
2019-06-26T06:22:55.112Z,26.36
2019-06-26T06:25:22.062Z,26.46
2019-06-26T06:27:49.194Z,26.53
2019-06-26T06:30:16.621Z,26.63
2019-06-26T06:32:43.443Z,26.78
2019-06-26T06:35:11.051Z,26.95
2019-06-26T06:37:38.299Z,27.07
2019-06-26T06:40:08.227Z,27.20
2019-06-26T06:42:35.213Z,27.30
2019-06-26T06:45:03.434Z,27.40
2019-06-26T06:47:30.499Z,27.49
2019-06-26T06:49:57.281Z,27.58
2019-06-26T06:52:24.181Z,27.70
2019-06-26T06:54:51.408Z,27.81
2019-06-26T06:57:18.315Z,27.93
2019-06-26T06:59:46.031Z,28.09
2019-06-26T07:02:12.743Z,28.24
2019-06-26T07:04:40.596Z,28.36
2019-06-26T07:07:07.417Z,28.50
2019-06-26T07:09:34.266Z,28.69
2019-06-26T07:12:01.365Z,28.93
2019-06-26T07:14:28.537Z,29.26
2019-06-26T07:16:55.359Z,28.84
2019-06-26T07:19:22.475Z,30.39
2019-06-26T07:21:50.077Z,30.91
2019-06-26T07:24:17.454Z,31.44
2019-06-26T07:26:44.966Z,31.84
2019-06-26T07:29:11.921Z,32.21
2019-06-26T07:31:38.874Z,32.41
2019-06-26T07:34:05.720Z,32.57
2019-06-26T07:36:32.572Z,32.73
2019-06-26T07:38:59.896Z,32.99
2019-06-26T07:41:27.027Z,33.13
2019-06-26T07:43:53.902Z,33.05
2019-06-26T07:46:20.607Z,33.03
2019-06-26T07:48:47.361Z,33.06
2019-06-26T07:51:14.948Z,33.19
2019-06-26T07:53:41.864Z,33.37
2019-06-26T07:56:08.778Z,32.71
2019-06-26T07:58:35.663Z,33.86
2019-06-26T08:01:03.433Z,34.06
2019-06-26T08:03:30.766Z,34.25
2019-06-26T08:05:58.113Z,34.46
2019-06-26T08:08:25.297Z,34.68
2019-06-26T08:10:51.963Z,34.93
2019-06-26T08:13:18.900Z,35.15
2019-06-26T08:15:46.716Z,35.32
2019-06-26T08:18:13.343Z,35.58
2019-06-26T08:20:51.869Z,35.69
2019-06-26T08:23:09.958Z,35.84
2019-06-26T08:25:36.950Z,36.03
2019-06-26T08:28:04.394Z,36.20
2019-06-26T08:30:32.199Z,36.21
2019-06-26T08:32:59.223Z,36.36
2019-06-26T08:35:26.391Z,36.44
2019-06-26T08:38:08.907Z,36.56
2019-06-26T08:40:23.390Z,36.73
2019-06-26T08:42:50.091Z,36.78
2019-06-26T08:45:18.020Z,36.77
2019-06-26T08:47:45.525Z,36.79
2019-06-26T08:50:12.645Z,36.84
2019-06-26T08:52:39.762Z,37.09
2019-06-26T08:55:06.888Z,37.25
2019-06-26T08:57:33.669Z,37.28
2019-06-26T09:00:00.527Z,37.38
2019-06-26T09:02:27.572Z,37.38
2019-06-26T09:04:55.159Z,37.48
2019-06-26T09:07:21.960Z,37.59
2019-06-26T09:09:49.271Z,37.78
2019-06-26T09:12:16.460Z,37.96
2019-06-26T09:14:43.194Z,38.00
2019-06-26T09:17:09.952Z,38.08
2019-06-26T09:19:37.330Z,38.03
2019-06-26T09:22:04.286Z,38.06
2019-06-26T09:24:31.175Z,38.28
2019-06-26T09:26:58.918Z,38.41
2019-06-26T09:29:25.911Z,38.47
2019-06-26T09:31:52.750Z,38.61
2019-06-26T09:34:20.072Z,38.73
2019-06-26T09:36:47.028Z,38.85
2019-06-26T09:39:14.395Z,39.15
2019-06-26T09:41:41.485Z,39.53
2019-06-26T09:44:08.753Z,39.33
2019-06-26T09:46:35.984Z,39.09
2019-06-26T09:49:08.410Z,38.57
2019-06-26T09:51:35.881Z,38.34
2019-06-26T09:54:03.360Z,37.95
2019-06-26T09:56:30.489Z,37.71
2019-06-26T09:58:57.329Z,37.59
2019-06-26T10:01:24.207Z,37.80
2019-06-26T10:03:51.346Z,38.31
2019-06-26T10:06:18.335Z,38.77
2019-06-26T10:08:45.154Z,38.83
2019-06-26T10:11:12.508Z,38.67
2019-06-26T10:13:39.556Z,38.72
2019-06-26T10:16:06.406Z,38.87
2019-06-26T10:18:33.594Z,38.85
2019-06-26T10:21:00.208Z,38.58
2019-06-26T10:23:26.971Z,38.69
2019-06-26T10:25:53.908Z,38.96
2019-06-26T10:28:21.160Z,39.36
2019-06-26T10:30:48.421Z,39.46
2019-06-26T10:33:15.351Z,39.53
2019-06-26T10:35:42.555Z,39.49
2019-06-26T10:38:09.589Z,39.20
2019-06-26T10:40:36.449Z,38.73
2019-06-26T10:43:03.362Z,38.44
2019-06-26T10:45:36.045Z,38.43
2019-06-26T10:48:01.975Z,38.38
2019-06-26T10:50:29.677Z,38.34
2019-06-26T10:52:56.293Z,38.43
2019-06-26T10:55:23.431Z,38.51
2019-06-26T10:57:50.252Z,38.54
2019-06-26T11:00:17.933Z,38.98
2019-06-26T11:02:45.242Z,39.39
2019-06-26T11:05:12.373Z,39.69
2019-06-26T11:07:39.146Z,40.08
2019-06-26T11:10:11.519Z,40.24
2019-06-26T11:12:36.242Z,40.22
2019-06-26T11:15:05.330Z,39.85
2019-06-26T11:17:32.222Z,39.74
2019-06-26T11:19:59.528Z,39.67
2019-06-26T11:22:26.256Z,39.44
2019-06-26T11:24:53.095Z,39.44
2019-06-26T11:27:20.672Z,39.03
2019-06-26T11:29:47.525Z,39.09
2019-06-26T11:32:14.405Z,39.09
2019-06-26T11:34:41.992Z,38.98
2019-06-26T11:37:09.023Z,39.16
2019-06-26T11:39:35.809Z,39.46
2019-06-26T11:42:02.790Z,39.37
2019-06-26T11:44:29.591Z,39.50
2019-06-26T11:46:56.673Z,39.50
2019-06-26T11:49:23.436Z,39.83
2019-06-26T11:51:50.332Z,39.75
2019-06-26T11:54:17.599Z,39.30
2019-06-26T11:56:44.737Z,39.43
2019-06-26T11:59:11.570Z,39.60
2019-06-26T12:01:39.001Z,39.43
2019-06-26T12:04:06.490Z,39.15
2019-06-26T12:06:33.301Z,38.78
2019-06-26T12:09:01.234Z,38.63
2019-06-26T12:11:28.039Z,38.66
2019-06-26T12:13:54.964Z,39.10
2019-06-26T12:16:22.137Z,39.54
2019-06-26T12:18:49.050Z,39.98
2019-06-26T12:21:15.925Z,40.13
2019-06-26T12:23:43.574Z,40.20
2019-06-26T12:26:10.617Z,40.20
2019-06-26T12:28:37.461Z,40.35
2019-06-26T12:31:04.494Z,40.30
2019-06-26T12:33:31.630Z,39.93
2019-06-26T12:35:59.246Z,38.43
2019-06-26T12:38:26.909Z,39.08
2019-06-26T12:40:55.596Z,38.98
2019-06-26T12:43:22.420Z,38.93
2019-06-26T12:45:49.604Z,38.90
2019-06-26T12:48:16.831Z,38.98
2019-06-26T12:50:44.980Z,38.79
2019-06-26T12:53:12.874Z,37.97
2019-06-26T12:55:39.801Z,38.77
2019-06-26T12:58:18.119Z,38.54
2019-06-26T13:00:42.476Z,38.63
2019-06-26T13:03:09.135Z,37.61
2019-06-26T13:05:35.984Z,38.60
2019-06-26T13:08:03.352Z,38.85
2019-06-26T13:10:30.276Z,39.40
2019-06-26T13:12:58.498Z,39.90
2019-06-26T13:15:26.590Z,39.90
2019-06-26T13:17:53.366Z,40.24
2019-06-26T13:20:20.333Z,40.14
2019-06-26T13:22:47.247Z,39.84
2019-06-26T13:25:15.894Z,39.56
2019-06-26T13:27:43.152Z,39.24
2019-06-26T13:30:10.277Z,38.94
2019-06-26T13:32:37.406Z,38.96
2019-06-26T13:35:05.189Z,39.18
2019-06-26T13:37:32.182Z,39.42
2019-06-26T13:39:59.122Z,39.61
2019-06-26T13:42:26.354Z,39.78
2019-06-26T13:44:53.108Z,40.10
2019-06-26T13:47:19.974Z,40.20
2019-06-26T13:49:47.643Z,40.28
2019-06-26T13:52:14.795Z,40.20
2019-06-26T13:54:41.786Z,38.98
2019-06-26T13:57:08.502Z,39.35
2019-06-26T13:59:35.753Z,40.21
2019-06-26T14:02:04.569Z,39.19
2019-06-26T14:04:31.410Z,39.86
2019-06-26T14:06:58.961Z,37.82
2019-06-26T14:09:25.702Z,37.82
2019-06-26T14:11:52.442Z,39.49
2019-06-26T14:14:20.577Z,39.61
2019-06-26T14:16:48.366Z,39.33
2019-06-26T14:19:15.111Z,39.13
2019-06-26T14:21:42.412Z,39.13
2019-06-26T14:24:09.182Z,39.01
2019-06-26T14:26:36.192Z,39.01
2019-06-26T14:29:03.001Z,38.78
2019-06-26T14:31:30.551Z,37.69
2019-06-26T14:33:57.385Z,38.82
2019-06-26T14:36:24.255Z,39.02
2019-06-26T14:38:52.070Z,39.28
2019-06-26T14:41:19.042Z,39.34
2019-06-26T14:43:45.770Z,39.18
2019-06-26T14:46:12.590Z,39.12
2019-06-26T14:48:40.305Z,39.20
2019-06-26T14:51:07.245Z,39.25
2019-06-26T14:53:34.461Z,39.25
2019-06-26T14:56:01.907Z,39.34
2019-06-26T14:58:29.022Z,39.09
2019-06-26T15:00:56.086Z,38.84
2019-06-26T15:03:22.966Z,38.77
2019-06-26T15:05:49.800Z,38.70
2019-06-26T15:08:17.417Z,38.68
2019-06-26T15:10:44.410Z,38.64
2019-06-26T15:13:11.511Z,38.70
2019-06-26T15:15:38.809Z,38.76
2019-06-26T15:18:05.700Z,38.72
2019-06-26T15:20:32.870Z,38.67
2019-06-26T15:22:59.829Z,38.64
2019-06-26T15:25:27.307Z,38.65
2019-06-26T15:27:54.025Z,38.64
2019-06-26T15:30:21.029Z,38.55
2019-06-26T15:32:48.072Z,38.70
2019-06-26T15:35:15.262Z,38.61
2019-06-26T15:37:44.748Z,38.42
2019-06-26T15:40:13.945Z,38.42
2019-06-26T15:42:41.281Z,38.36
2019-06-26T15:45:08.381Z,38.40
2019-06-26T15:47:35.191Z,38.38
2019-06-26T15:50:03.367Z,37.28
2019-06-26T15:52:31.598Z,38.14
2019-06-26T15:54:58.874Z,38.09
2019-06-26T15:57:26.177Z,37.84
2019-06-26T15:59:52.995Z,37.63
2019-06-26T16:02:19.897Z,37.57
2019-06-26T16:04:47.956Z,37.73
2019-06-26T16:07:14.732Z,37.73
2019-06-26T16:09:41.684Z,36.62
2019-06-26T16:12:08.420Z,37.49
2019-06-26T16:14:35.957Z,37.46
2019-06-26T16:17:04.992Z,36.36
2019-06-26T16:19:31.754Z,37.28
2019-06-26T16:21:59.418Z,37.34
2019-06-26T16:24:29.922Z,37.47
2019-06-26T16:26:55.024Z,37.53
2019-06-26T16:29:22.068Z,37.55
2019-06-26T16:31:50.072Z,37.61
2019-06-26T16:34:16.813Z,37.66
2019-06-26T16:36:43.815Z,37.63
2019-06-26T16:39:11.976Z,37.54
2019-06-26T16:41:39.206Z,37.50
2019-06-26T16:44:06.458Z,37.28
2019-06-26T16:46:34.742Z,36.98
2019-06-26T16:49:01.939Z,36.89
2019-06-26T16:51:30.710Z,36.65
2019-06-26T16:53:58.003Z,36.50
2019-06-26T16:56:24.861Z,36.44
2019-06-26T16:58:51.898Z,36.35
2019-06-26T17:01:18.622Z,36.22
2019-06-26T17:03:46.307Z,36.15
2019-06-26T17:06:13.191Z,36.07
2019-06-26T17:08:40.114Z,35.87
2019-06-26T17:11:07.312Z,35.80
2019-06-26T17:13:34.451Z,35.82
2019-06-26T17:16:01.317Z,35.79
2019-06-26T17:18:28.482Z,35.57
2019-06-26T17:20:55.791Z,35.49
2019-06-26T17:23:22.550Z,34.37
2019-06-26T17:25:50.396Z,35.37
2019-06-26T17:28:17.324Z,35.36
2019-06-26T17:30:44.099Z,35.34
2019-06-26T17:33:10.931Z,35.35
2019-06-26T17:35:38.101Z,35.29
2019-06-26T17:38:04.823Z,35.18
2019-06-26T17:40:31.780Z,35.11
2019-06-26T17:43:11.735Z,34.99
2019-06-26T17:45:27.955Z,34.90
2019-06-26T17:47:54.691Z,34.81
2019-06-26T17:50:21.587Z,34.69
2019-06-26T17:52:48.994Z,34.61
2019-06-26T17:55:16.126Z,34.57
2019-06-26T17:57:42.933Z,34.50
2019-06-26T18:00:12.273Z,34.42
2019-06-26T18:02:39.086Z,34.33
2019-06-26T18:05:06.081Z,34.22
2019-06-26T18:07:33.018Z,34.14
2019-06-26T18:10:00.080Z,34.12
2019-06-26T18:12:26.920Z,33.33
2019-06-26T18:14:53.648Z,33.92
2019-06-26T18:17:22.286Z,33.80
2019-06-26T18:19:53.634Z,33.67
2019-06-26T18:22:18.693Z,33.58
2019-06-26T18:24:45.494Z,33.53
2019-06-26T18:27:12.554Z,33.46
2019-06-26T18:29:39.362Z,33.39
2019-06-26T18:32:06.368Z,33.34
2019-06-26T18:34:33.087Z,33.29
2019-06-26T18:37:00.121Z,33.23
2019-06-26T18:39:26.843Z,33.19
2019-06-26T18:41:53.718Z,33.08
2019-06-26T18:44:20.947Z,32.99
2019-06-26T18:46:47.566Z,32.89
2019-06-26T18:49:14.335Z,31.65
2019-06-26T18:51:41.411Z,31.59
2019-06-26T18:54:08.868Z,32.69
2019-06-26T18:56:36.127Z,32.58
2019-06-26T18:59:03.315Z,32.51
2019-06-26T19:01:30.140Z,32.43
2019-06-26T19:03:57.016Z,32.36
2019-06-26T19:06:24.180Z,31.15
2019-06-26T19:08:51.189Z,32.21
2019-06-26T19:11:17.889Z,32.11
2019-06-26T19:13:45.139Z,32.02
2019-06-26T19:16:11.973Z,31.96
2019-06-26T19:18:38.596Z,31.91
2019-06-26T19:21:06.090Z,31.82
2019-06-26T19:23:33.410Z,30.60
2019-06-26T19:26:00.175Z,31.67
2019-06-26T19:28:26.899Z,31.57
2019-06-26T19:30:53.932Z,31.49
2019-06-26T19:33:20.868Z,31.41
2019-06-26T19:35:48.052Z,31.34
2019-06-26T19:38:15.522Z,31.22
2019-06-26T19:40:42.441Z,31.11
2019-06-26T19:43:11.087Z,31.04
2019-06-26T19:45:37.993Z,29.82
2019-06-26T19:48:05.403Z,30.92
2019-06-26T19:50:32.308Z,30.85
2019-06-26T19:52:59.173Z,29.61
2019-06-26T19:55:26.573Z,30.76
2019-06-26T19:57:53.360Z,30.69
2019-06-26T20:00:20.214Z,30.59
2019-06-26T20:02:47.532Z,30.48
2019-06-26T20:05:14.719Z,30.41
2019-06-26T20:07:41.539Z,30.30
2019-06-26T20:10:09.055Z,30.24
2019-06-26T20:12:35.893Z,30.15
2019-06-26T20:15:04.268Z,29.98
2019-06-26T20:17:33.186Z,27.89
2019-06-26T20:20:00.201Z,28.69
2019-06-26T20:22:27.542Z,29.84
2019-06-26T20:24:57.307Z,29.78
2019-06-26T20:27:24.038Z,29.73
2019-06-26T20:29:50.825Z,29.68
2019-06-26T20:32:18.552Z,29.66
2019-06-26T20:34:45.489Z,29.60
2019-06-26T20:37:12.476Z,29.54
2019-06-26T20:39:39.188Z,29.47
2019-06-26T20:42:06.383Z,29.39
2019-06-26T20:44:33.333Z,29.31
2019-06-26T20:47:00.904Z,29.23
2019-06-26T20:49:28.570Z,29.16
2019-06-26T20:51:55.604Z,28.00
2019-06-26T20:54:22.389Z,29.01
2019-06-26T20:56:49.679Z,28.90
2019-06-26T20:59:16.415Z,28.78
2019-06-26T21:01:43.290Z,28.67
2019-06-26T21:04:10.443Z,28.57
2019-06-26T21:06:37.537Z,28.45
2019-06-26T21:09:05.024Z,28.35
2019-06-26T21:11:31.757Z,28.27
2019-06-26T21:13:59.196Z,28.20
2019-06-26T21:16:26.156Z,28.12
2019-06-26T21:18:53.281Z,28.04
2019-06-26T21:21:21.686Z,27.97
2019-06-26T21:23:48.549Z,27.94
2019-06-26T21:26:15.785Z,27.86
2019-06-26T21:28:43.066Z,27.81
2019-06-26T21:31:10.035Z,27.73
2019-06-26T21:33:37.468Z,27.64
2019-06-26T21:36:05.223Z,27.60
2019-06-26T21:38:32.665Z,27.25
2019-06-26T21:40:59.634Z,27.47
2019-06-26T21:43:26.629Z,27.40
2019-06-26T21:45:54.247Z,27.32
2019-06-26T21:48:21.677Z,27.27
2019-06-26T21:50:49.432Z,27.26
2019-06-26T21:53:16.115Z,27.26
2019-06-26T21:55:43.444Z,27.23
2019-06-26T21:58:10.530Z,27.20
2019-06-26T22:00:37.932Z,27.20
2019-06-26T22:03:05.256Z,27.17
2019-06-26T22:05:33.315Z,27.15
2019-06-26T22:08:00.391Z,27.14
2019-06-26T22:10:27.530Z,27.10
2019-06-26T22:12:55.229Z,27.02
2019-06-26T22:15:22.578Z,26.94
2019-06-26T22:17:50.174Z,26.88
2019-06-26T22:20:18.231Z,26.82
2019-06-26T22:22:46.139Z,26.76
2019-06-26T22:25:13.212Z,26.63
2019-06-26T22:27:41.075Z,26.55
2019-06-26T22:30:08.791Z,26.48
2019-06-26T22:32:36.505Z,26.42
2019-06-26T22:35:05.025Z,24.10
2019-06-26T22:37:32.296Z,26.34
2019-06-26T22:39:59.911Z,26.28
2019-06-26T22:42:27.539Z,25.00
2019-06-26T22:44:55.470Z,26.18
2019-06-26T22:47:22.569Z,26.15
2019-06-26T22:49:49.792Z,26.12
2019-06-26T22:52:16.641Z,26.05
2019-06-26T22:54:43.521Z,26.04
2019-06-26T22:57:11.439Z,26.00
2019-06-26T22:59:38.182Z,25.94
2019-06-26T23:02:05.957Z,25.89
2019-06-26T23:04:34.032Z,25.84
2019-06-26T23:07:00.777Z,25.84
2019-06-26T23:09:28.964Z,25.81
2019-06-26T23:11:56.623Z,25.77
2019-06-26T23:14:23.508Z,25.72
2019-06-26T23:16:51.626Z,25.63
2019-06-26T23:19:18.372Z,25.56
2019-06-26T23:21:45.312Z,25.53
2019-06-26T23:24:12.711Z,25.50
2019-06-26T23:26:40.309Z,25.41
2019-06-26T23:29:07.212Z,25.35
2019-06-26T23:31:34.806Z,25.28
2019-06-26T23:34:02.121Z,25.18
2019-06-26T23:36:29.626Z,25.09
2019-06-26T23:38:57.196Z,25.03
2019-06-26T23:41:24.949Z,24.96
2019-06-26T23:43:52.609Z,24.87
2019-06-26T23:46:19.227Z,24.78
2019-06-26T23:48:46.560Z,24.69
2019-06-26T23:51:13.859Z,24.65
2019-06-26T23:53:41.041Z,24.59
2019-06-26T23:56:07.862Z,24.53
2019-06-26T23:58:35.845Z,24.43
